PWSweather.com
Personal Weather Stations
Station Observations
IMAZOWIE6
WarszawaPL

WarszawaPL

Lat: 52.27957, Lon: 21.05489

Elevation: 100

Station Type: WS1080

http://stacjapogody.waw.pl/

High Low Average
Temperature 45.0°F7.2°C 43.0°F6.1°C 44.0°F6.7°C
Dew Point 17.6°F-8.0°C 5.5°F-14.7°C 13.0°F-10.6°C
Winds 3.4 mph 5.5 kmh Calm Calm 1.0 mph N1.6 kmh N
Wind Gusts 7.4 mph11.9 kmh -- 4.0 mph6.4 kmh
Humidity 34% 21% 29%
Pressure 29.61 in1002.7 mb 29.56 in1001.0 mb -
Precipitation 0.00 in0.0 mm - -
Hour Temp Dew Point Humidity Winds Wind Gusts Pressure Precip Precip Rate Daily Precip Total
12:00 AM 44.4°F6.9°C 13.1°F-10.5°C 28% 0.6 mph N1.0 kmh N 4.0 mph6.4 kmh 29.57 in1001.4 mb 0.00 in0.0 mm 0.00 in0.0 mm 0.00 in0.0 mm
12:16 AM 44.4°F6.9°C 13.9°F-10.1°C 29% 3.4 mph N5.5 kmh N 7.4 mph11.9 kmh 29.56 in1001.0 mb 0.00 in0.0 mm 0.00 in0.0 mm 0.00 in0.0 mm
12:31 AM 44.4°F6.9°C 13.9°F-10.1°C 29% 3.4 mph N5.5 kmh N 7.4 mph11.9 kmh 29.56 in1001.0 mb 0.00 in0.0 mm 0.00 in0.0 mm 0.00 in0.0 mm
12:46 AM 44.6°F7.0°C 14.1°F-9.9°C 29% 3.4 mph N5.5 kmh N 6.8 mph10.9 kmh 29.56 in1001.0 mb 0.00 in0.0 mm 0.00 in0.0 mm 0.00 in0.0 mm
01:01 AM 45.0°F7.2°C 14.4°F-9.8°C 29% 0.6 mph N1.0 kmh N 2.8 mph4.5 kmh 29.56 in1001.0 mb 0.00 in0.0 mm 0.00 in0.0 mm 0.00 in0.0 mm
01:16 AM 44.8°F7.1°C 13.4°F-10.3°C 28% Calm Calm 3.4 mph5.5 kmh 29.56 in1001.0 mb 0.00 in0.0 mm 0.00 in0.0 mm 0.00 in0.0 mm
01:31 AM 44.8°F7.1°C 13.4°F-10.3°C 28% 2.0 mph N3.2 kmh N 4.8 mph7.7 kmh 29.56 in1001.0 mb 0.00 in0.0 mm 0.00 in0.0 mm 0.00 in0.0 mm
01:46 AM 44.8°F7.1°C 13.4°F-10.3°C 28% 0.6 mph N1.0 kmh N 4.0 mph6.4 kmh 29.56 in1001.0 mb 0.00 in0.0 mm 0.00 in0.0 mm 0.00 in0.0 mm
02:01 AM 44.6°F7.0°C 13.3°F-10.4°C 28% 2.0 mph N3.2 kmh N 4.8 mph7.7 kmh 29.57 in1001.4 mb 0.00 in0.0 mm 0.00 in0.0 mm 0.00 in0.0 mm
02:16 AM 44.6°F7.0°C 13.3°F-10.4°C 28% Calm Calm 3.4 mph5.5 kmh 29.56 in1001.0 mb 0.01 in0.3 mm 0.05 in1.3 mm 0.01 in0.3 mm
02:31 AM 44.6°F7.0°C 13.3°F-10.4°C 28% Calm Calm 3.4 mph5.5 kmh 29.56 in1001.0 mb 0.01 in0.3 mm 0.00 in0.0 mm 0.01 in0.3 mm
02:46 AM 44.6°F7.0°C 13.3°F-10.4°C 28% Calm Calm 3.4 mph5.5 kmh 29.56 in1001.0 mb 0.01 in0.3 mm 0.00 in0.0 mm 0.01 in0.3 mm
03:01 AM 44.6°F7.0°C 14.1°F-9.9°C 29% 1.4 mph N2.3 kmh N 4.8 mph7.7 kmh 29.56 in1001.0 mb 0.01 in0.3 mm 0.00 in0.0 mm 0.01 in0.3 mm
03:16 AM 44.6°F7.0°C 14.1°F-9.9°C 29% 0.6 mph N1.0 kmh N 5.4 mph8.7 kmh 29.56 in1001.0 mb 0.00 in0.0 mm 0.00 in0.0 mm 0.01 in0.3 mm
03:31 AM 44.6°F7.0°C 14.1°F-9.9°C 29% 0.6 mph N1.0 kmh N 2.8 mph4.5 kmh 29.56 in1001.0 mb 0.00 in0.0 mm 0.00 in0.0 mm 0.01 in0.3 mm
03:46 AM 44.4°F6.9°C 13.9°F-10.1°C 29% Calm Calm 2.8 mph4.5 kmh 29.56 in1001.0 mb 0.01 in0.3 mm 0.05 in1.3 mm 0.02 in0.5 mm
04:01 AM 44.6°F7.0°C 14.8°F-9.6°C 30% 1.4 mph N2.3 kmh N 5.4 mph8.7 kmh 29.57 in1001.4 mb 0.01 in0.3 mm 0.00 in0.0 mm 0.02 in0.5 mm
04:16 AM 44.6°F7.0°C 14.8°F-9.6°C 30% 1.4 mph N2.3 kmh N 5.4 mph8.7 kmh 29.57 in1001.4 mb 0.01 in0.3 mm 0.00 in0.0 mm 0.02 in0.5 mm
04:31 AM 44.4°F6.9°C 14.7°F-9.6°C 30% 0.6 mph N1.0 kmh N 3.4 mph5.5 kmh 29.56 in1001.0 mb 0.00 in0.0 mm 0.00 in0.0 mm 0.02 in0.5 mm
04:46 AM 44.6°F7.0°C 15.6°F-9.1°C 31% Calm Calm 1.4 mph2.3 kmh 29.56 in1001.0 mb 0.00 in0.0 mm 0.00 in0.0 mm 0.02 in0.5 mm
05:01 AM 44.4°F6.9°C 15.4°F-9.2°C 31% Calm Calm 3.4 mph5.5 kmh 29.56 in1001.0 mb 0.00 in0.0 mm 0.00 in0.0 mm 0.02 in0.5 mm
05:16 AM 44.8°F7.1°C 15.8°F-9.0°C 31% Calm Calm 0.6 mph1.0 kmh 29.57 in1001.4 mb 0.00 in0.0 mm 0.00 in0.0 mm 0.02 in0.5 mm
05:31 AM 44.6°F7.0°C 16.3°F-8.7°C 32% Calm Calm 1.4 mph2.3 kmh 29.57 in1001.4 mb 0.01 in0.3 mm 0.05 in1.3 mm 0.04 in1.0 mm
05:46 AM 44.4°F6.9°C 16.2°F-8.8°C 32% Calm Calm 2.0 mph3.2 kmh 29.57 in1001.4 mb 0.01 in0.3 mm 0.00 in0.0 mm 0.04 in1.0 mm
06:01 AM 44.4°F6.9°C 16.2°F-8.8°C 32% Calm Calm 0.6 mph1.0 kmh 29.57 in1001.4 mb 0.01 in0.3 mm 0.00 in0.0 mm 0.04 in1.0 mm
06:16 AM 44.4°F6.9°C 16.2°F-8.8°C 32% Calm Calm 2.0 mph3.2 kmh 29.58 in1001.7 mb 0.00 in0.0 mm 0.00 in0.0 mm 0.04 in1.0 mm
06:31 AM 44.4°F6.9°C 16.2°F-8.8°C 32% 2.0 mph N3.2 kmh N 4.0 mph6.4 kmh 29.57 in1001.4 mb 0.00 in0.0 mm 0.00 in0.0 mm 0.04 in1.0 mm
06:46 AM 44.2°F6.8°C 16.0°F-8.9°C 32% Calm Calm 2.8 mph4.5 kmh 29.57 in1001.4 mb 0.00 in0.0 mm 0.00 in0.0 mm 0.04 in1.0 mm
07:01 AM 44.1°F6.7°C 15.9°F-8.9°C 32% 1.4 mph N2.3 kmh N 4.8 mph7.7 kmh 29.57 in1001.4 mb 0.00 in0.0 mm 0.00 in0.0 mm 0.04 in1.0 mm
07:16 AM 44.4°F6.9°C 16.9°F-8.4°C 33% 2.0 mph N3.2 kmh N 3.4 mph5.5 kmh 29.57 in1001.4 mb 0.00 in0.0 mm 0.00 in0.0 mm 0.04 in1.0 mm
07:31 AM 44.2°F6.8°C 16.7°F-8.5°C 33% Calm Calm 2.0 mph3.2 kmh 29.58 in1001.7 mb 0.00 in0.0 mm 0.00 in0.0 mm 0.04 in1.0 mm
07:46 AM 44.2°F6.8°C 16.7°F-8.5°C 33% Calm Calm 2.8 mph4.5 kmh 29.58 in1001.7 mb 0.01 in0.3 mm 0.05 in1.3 mm 0.05 in1.3 mm
08:01 AM 44.4°F6.9°C 16.9°F-8.4°C 33% Calm Calm -- 29.58 in1001.7 mb 0.01 in0.3 mm 0.00 in0.0 mm 0.05 in1.3 mm
08:16 AM 44.2°F6.8°C 16.7°F-8.5°C 33% 1.4 mph N2.3 kmh N 4.0 mph6.4 kmh 29.58 in1001.7 mb 0.00 in0.0 mm 0.00 in0.0 mm 0.05 in1.3 mm
08:31 AM 44.2°F6.8°C 16.7°F-8.5°C 33% 0.6 mph N1.0 kmh N 4.0 mph6.4 kmh 29.58 in1001.7 mb 0.01 in0.3 mm 0.05 in1.3 mm 0.06 in1.5 mm
08:46 AM 44.4°F6.9°C 16.9°F-8.4°C 33% 1.4 mph N2.3 kmh N 3.4 mph5.5 kmh 29.58 in1001.7 mb 0.01 in0.3 mm 0.00 in0.0 mm 0.06 in1.5 mm
09:01 AM 44.4°F6.9°C 16.9°F-8.4°C 33% 1.4 mph N2.3 kmh N 3.4 mph5.5 kmh 29.58 in1001.7 mb 0.01 in0.3 mm 0.00 in0.0 mm 0.06 in1.5 mm
09:16 AM 44.2°F6.8°C 17.4°F-8.1°C 34% 0.6 mph N1.0 kmh N 3.4 mph5.5 kmh 29.58 in1001.7 mb 0.01 in0.3 mm 0.00 in0.0 mm 0.06 in1.5 mm
09:31 AM 44.2°F6.8°C 17.4°F-8.1°C 34% 1.4 mph N2.3 kmh N 4.0 mph6.4 kmh 29.58 in1001.7 mb 0.01 in0.3 mm 0.00 in0.0 mm 0.06 in1.5 mm
09:46 AM 44.4°F6.9°C 17.6°F-8.0°C 34% 0.6 mph N1.0 kmh N 2.8 mph4.5 kmh 29.58 in1001.7 mb 0.01 in0.3 mm 0.00 in0.0 mm 0.06 in1.5 mm
10:01 AM 44.4°F6.9°C 17.6°F-8.0°C 34% 1.4 mph N2.3 kmh N 5.4 mph8.7 kmh 29.58 in1001.7 mb 0.01 in0.3 mm 0.00 in0.0 mm 0.06 in1.5 mm
10:16 AM 44.1°F6.7°C 17.3°F-8.2°C 34% 2.8 mph N4.5 kmh N 5.4 mph8.7 kmh 29.58 in1001.7 mb 0.01 in0.3 mm 0.00 in0.0 mm 0.06 in1.5 mm
10:31 AM 44.2°F6.8°C 17.4°F-8.1°C 34% 2.0 mph N3.2 kmh N 5.4 mph8.7 kmh 29.58 in1001.7 mb 0.01 in0.3 mm 0.00 in0.0 mm 0.06 in1.5 mm
10:46 AM 44.2°F6.8°C 17.4°F-8.1°C 34% 1.4 mph N2.3 kmh N 3.4 mph5.5 kmh 29.59 in1002.0 mb 0.01 in0.3 mm 0.00 in0.0 mm 0.06 in1.5 mm
11:01 AM 44.1°F6.7°C 17.3°F-8.2°C 34% 1.4 mph N2.3 kmh N 6.2 mph10.0 kmh 29.58 in1001.7 mb 0.01 in0.3 mm 0.00 in0.0 mm 0.06 in1.5 mm
11:17 AM 44.2°F6.8°C 17.4°F-8.1°C 34% 2.8 mph N4.5 kmh N 5.4 mph8.7 kmh 29.58 in1001.7 mb 0.00 in0.0 mm 0.00 in0.0 mm 0.06 in1.5 mm
11:33 AM 44.4°F6.9°C 17.6°F-8.0°C 34% 1.4 mph N2.3 kmh N 4.8 mph7.7 kmh 29.58 in1001.7 mb 0.00 in0.0 mm 0.00 in0.0 mm 0.06 in1.5 mm
11:49 AM 44.2°F6.8°C 17.4°F-8.1°C 34% 1.4 mph N2.3 kmh N 4.0 mph6.4 kmh 29.58 in1001.7 mb 0.00 in0.0 mm 0.00 in0.0 mm 0.06 in1.5 mm
12:05 PM 44.2°F6.8°C 17.4°F-8.1°C 34% 1.4 mph N2.3 kmh N 5.4 mph8.7 kmh 29.58 in1001.7 mb 0.00 in0.0 mm 0.00 in0.0 mm 0.06 in1.5 mm
12:16 PM 44.2°F6.8°C 16.7°F-8.5°C 33% Calm Calm 4.8 mph7.7 kmh 29.58 in1001.7 mb 0.00 in0.0 mm 0.00 in0.0 mm 0.06 in1.5 mm
12:32 PM 44.1°F6.7°C 16.6°F-8.6°C 33% 0.6 mph N1.0 kmh N 3.4 mph5.5 kmh 29.58 in1001.7 mb 0.00 in0.0 mm 0.00 in0.0 mm 0.06 in1.5 mm
12:48 PM 44.2°F6.8°C 16.7°F-8.5°C 33% 2.0 mph N3.2 kmh N 4.8 mph7.7 kmh 29.58 in1001.7 mb 0.00 in0.0 mm 0.00 in0.0 mm 0.06 in1.5 mm
01:00 PM 44.2°F6.8°C 16.7°F-8.5°C 33% 2.0 mph N3.2 kmh N 4.8 mph7.7 kmh 29.58 in1001.7 mb 0.00 in0.0 mm 0.00 in0.0 mm 0.06 in1.5 mm
01:15 PM 44.2°F6.8°C 16.7°F-8.5°C 33% 2.0 mph N3.2 kmh N 4.8 mph7.7 kmh 29.58 in1001.7 mb 0.00 in0.0 mm 0.00 in0.0 mm 0.06 in1.5 mm
01:31 PM 44.2°F6.8°C 16.0°F-8.9°C 32% 0.6 mph N1.0 kmh N 4.0 mph6.4 kmh 29.58 in1001.7 mb 0.00 in0.0 mm 0.00 in0.0 mm 0.06 in1.5 mm
01:46 PM 44.1°F6.7°C 15.1°F-9.4°C 31% 1.4 mph N2.3 kmh N 5.4 mph8.7 kmh 29.58 in1001.7 mb 0.00 in0.0 mm 0.00 in0.0 mm 0.06 in1.5 mm
02:01 PM 44.1°F6.7°C 14.4°F-9.8°C 30% 0.6 mph N1.0 kmh N 3.4 mph5.5 kmh 29.58 in1001.7 mb 0.00 in0.0 mm 0.00 in0.0 mm 0.06 in1.5 mm
02:15 PM 44.1°F6.7°C 14.4°F-9.8°C 30% 0.6 mph N1.0 kmh N 3.4 mph5.5 kmh 29.58 in1001.7 mb 0.00 in0.0 mm 0.00 in0.0 mm 0.06 in1.5 mm
02:33 PM 43.9°F6.6°C 13.4°F-10.3°C 29% Calm Calm 2.0 mph3.2 kmh 29.59 in1002.0 mb 0.00 in0.0 mm 0.00 in0.0 mm 0.06 in1.5 mm
02:49 PM 43.7°F6.5°C 12.5°F-10.8°C 28% 1.4 mph N2.3 kmh N 4.0 mph6.4 kmh 29.59 in1002.0 mb 0.00 in0.0 mm 0.00 in0.0 mm 0.06 in1.5 mm
03:05 PM 43.7°F6.5°C 12.5°F-10.8°C 28% 1.4 mph N2.3 kmh N 4.8 mph7.7 kmh 29.59 in1002.0 mb 0.00 in0.0 mm 0.00 in0.0 mm 0.06 in1.5 mm
03:16 PM 43.7°F6.5°C 12.5°F-10.8°C 28% 1.4 mph N2.3 kmh N 4.0 mph6.4 kmh 29.59 in1002.0 mb 0.00 in0.0 mm 0.00 in0.0 mm 0.06 in1.5 mm
03:32 PM 43.7°F6.5°C 11.7°F-11.3°C 27% 1.4 mph N2.3 kmh N 4.0 mph6.4 kmh 29.59 in1002.0 mb 0.00 in0.0 mm 0.00 in0.0 mm 0.06 in1.5 mm
03:48 PM 43.5°F6.4°C 11.5°F-11.4°C 27% 0.6 mph N1.0 kmh N 2.8 mph4.5 kmh 29.59 in1002.0 mb 0.00 in0.0 mm 0.00 in0.0 mm 0.06 in1.5 mm
04:00 PM 43.5°F6.4°C 11.5°F-11.4°C 27% 0.6 mph N1.0 kmh N 2.8 mph4.5 kmh 29.59 in1002.0 mb 0.00 in0.0 mm 0.00 in0.0 mm 0.06 in1.5 mm
04:20 PM 43.7°F6.5°C 10.8°F-11.8°C 26% 2.8 mph N4.5 kmh N 6.8 mph10.9 kmh 29.59 in1002.0 mb 0.00 in0.0 mm 0.00 in0.0 mm 0.06 in1.5 mm
04:30 PM 43.7°F6.5°C 10.8°F-11.8°C 26% 2.8 mph N4.5 kmh N 6.8 mph10.9 kmh 29.59 in1002.0 mb 0.00 in0.0 mm 0.00 in0.0 mm 0.06 in1.5 mm
04:46 PM 43.7°F6.5°C 10.8°F-11.8°C 26% 2.0 mph N3.2 kmh N 6.2 mph10.0 kmh 29.60 in1002.4 mb 0.00 in0.0 mm 0.00 in0.0 mm 0.06 in1.5 mm
05:03 PM 43.9°F6.6°C 10.1°F-12.2°C 25% 2.0 mph N3.2 kmh N 4.8 mph7.7 kmh 29.60 in1002.4 mb 0.00 in0.0 mm 0.00 in0.0 mm 0.06 in1.5 mm
05:18 PM 43.7°F6.5°C 9.0°F-12.8°C 24% 0.6 mph N1.0 kmh N 2.8 mph4.5 kmh 29.60 in1002.4 mb 0.00 in0.0 mm 0.00 in0.0 mm 0.06 in1.5 mm
05:31 PM 43.7°F6.5°C 9.0°F-12.8°C 24% 0.6 mph N1.0 kmh N 2.8 mph4.5 kmh 29.60 in1002.4 mb 0.00 in0.0 mm 0.00 in0.0 mm 0.06 in1.5 mm
05:49 PM 43.7°F6.5°C 9.0°F-12.8°C 24% 0.6 mph N1.0 kmh N 2.8 mph4.5 kmh 29.60 in1002.4 mb 0.00 in0.0 mm 0.00 in0.0 mm 0.06 in1.5 mm
06:01 PM 43.7°F6.5°C 9.0°F-12.8°C 24% 0.6 mph N1.0 kmh N 2.8 mph4.5 kmh 29.60 in1002.4 mb 0.00 in0.0 mm 0.00 in0.0 mm 0.06 in1.5 mm
06:17 PM 43.5°F6.4°C 7.0°F-13.9°C 22% 0.6 mph N1.0 kmh N 3.4 mph5.5 kmh 29.60 in1002.4 mb 0.00 in0.0 mm 0.00 in0.0 mm 0.06 in1.5 mm
06:33 PM 43.5°F6.4°C 7.0°F-13.9°C 22% 1.4 mph N2.3 kmh N 4.0 mph6.4 kmh 29.60 in1002.4 mb 0.00 in0.0 mm 0.00 in0.0 mm 0.06 in1.5 mm
06:45 PM 43.5°F6.4°C 7.0°F-13.9°C 22% 1.4 mph N2.3 kmh N 4.0 mph6.4 kmh 29.60 in1002.4 mb 0.00 in0.0 mm 0.00 in0.0 mm 0.06 in1.5 mm
07:05 PM 43.2°F6.2°C 5.6°F-14.7°C 21% 0.6 mph N1.0 kmh N 2.8 mph4.5 kmh 29.60 in1002.4 mb 0.00 in0.0 mm 0.00 in0.0 mm 0.06 in1.5 mm
07:16 PM 43.2°F6.2°C 5.6°F-14.7°C 21% 1.4 mph N2.3 kmh N 4.0 mph6.4 kmh 29.60 in1002.4 mb 0.01 in0.3 mm 0.07 in1.8 mm 0.07 in1.8 mm
07:32 PM 43.0°F6.1°C 5.5°F-14.7°C 21% 2.8 mph N4.5 kmh N 5.4 mph8.7 kmh 29.60 in1002.4 mb 0.01 in0.3 mm 0.00 in0.0 mm 0.07 in1.8 mm
07:48 PM 43.0°F6.1°C 6.5°F-14.2°C 22% 2.0 mph N3.2 kmh N 4.0 mph6.4 kmh 29.60 in1002.4 mb 0.01 in0.3 mm 0.00 in0.0 mm 0.07 in1.8 mm
08:04 PM 43.0°F6.1°C 6.5°F-14.2°C 22% 0.6 mph N1.0 kmh N 3.4 mph5.5 kmh 29.60 in1002.4 mb 0.01 in0.3 mm 0.00 in0.0 mm 0.07 in1.8 mm
08:20 PM 43.2°F6.2°C 6.7°F-14.1°C 22% 0.6 mph N1.0 kmh N 3.4 mph5.5 kmh 29.60 in1002.4 mb 0.01 in0.3 mm 0.00 in0.0 mm 0.07 in1.8 mm
08:31 PM 43.0°F6.1°C 6.5°F-14.2°C 22% 1.4 mph N2.3 kmh N 6.2 mph10.0 kmh 29.60 in1002.4 mb 0.01 in0.3 mm 0.00 in0.0 mm 0.07 in1.8 mm
08:47 PM 43.0°F6.1°C 6.5°F-14.2°C 22% 2.0 mph N3.2 kmh N 4.0 mph6.4 kmh 29.60 in1002.4 mb 0.01 in0.3 mm 0.00 in0.0 mm 0.07 in1.8 mm
09:00 PM 43.0°F6.1°C 6.5°F-14.2°C 22% 2.0 mph N3.2 kmh N 4.0 mph6.4 kmh 29.60 in1002.4 mb 0.01 in0.3 mm 0.00 in0.0 mm 0.07 in1.8 mm
09:19 PM 43.3°F6.3°C 7.8°F-13.4°C 23% Calm Calm 2.0 mph3.2 kmh 29.60 in1002.4 mb 0.00 in0.0 mm 0.00 in0.0 mm 0.07 in1.8 mm
09:35 PM 43.3°F6.3°C 7.8°F-13.4°C 23% 1.4 mph N2.3 kmh N 4.0 mph6.4 kmh 29.60 in1002.4 mb 0.00 in0.0 mm 0.00 in0.0 mm 0.07 in1.8 mm
09:51 PM 43.3°F6.3°C 7.8°F-13.4°C 23% 1.4 mph N2.3 kmh N 4.0 mph6.4 kmh 29.60 in1002.4 mb 0.00 in0.0 mm 0.00 in0.0 mm 0.07 in1.8 mm
10:01 PM 43.3°F6.3°C 7.8°F-13.4°C 23% 1.4 mph N2.3 kmh N 5.4 mph8.7 kmh 29.60 in1002.4 mb 0.00 in0.0 mm 0.00 in0.0 mm 0.07 in1.8 mm
10:17 PM 43.5°F6.4°C 8.9°F-12.8°C 24% 2.0 mph N3.2 kmh N 4.8 mph7.7 kmh 29.60 in1002.4 mb 0.00 in0.0 mm 0.00 in0.0 mm 0.07 in1.8 mm
10:33 PM 43.3°F6.3°C 8.7°F-12.9°C 24% 1.4 mph N2.3 kmh N 4.8 mph7.7 kmh 29.61 in1002.7 mb 0.00 in0.0 mm 0.00 in0.0 mm 0.07 in1.8 mm
10:49 PM 43.5°F6.4°C 8.9°F-12.8°C 24% Calm Calm 2.8 mph4.5 kmh 29.61 in1002.7 mb 0.00 in0.0 mm 0.00 in0.0 mm 0.07 in1.8 mm
11:05 PM 43.5°F6.4°C 8.9°F-12.8°C 24% 1.4 mph N2.3 kmh N 3.4 mph5.5 kmh 29.61 in1002.7 mb 0.01 in0.3 mm 0.02 in0.5 mm 0.09 in2.3 mm
11:20 PM 43.5°F6.4°C 8.9°F-12.8°C 24% 2.0 mph N3.2 kmh N 6.2 mph10.0 kmh 29.60 in1002.4 mb 0.00 in0.0 mm 0.00 in0.0 mm 0.09 in2.3 mm
11:35 PM 43.5°F6.4°C 9.8°F-12.3°C 25% 1.4 mph N2.3 kmh N 4.0 mph6.4 kmh 29.60 in1002.4 mb 0.00 in0.0 mm 0.00 in0.0 mm 0.09 in2.3 mm
11:50 PM 43.5°F6.4°C 9.8°F-12.3°C 25% 2.0 mph N3.2 kmh N 4.0 mph6.4 kmh 29.60 in1002.4 mb 0.00 in0.0 mm 0.00 in0.0 mm 0.09 in2.3 mm